sensor_id;sensor_type;location;lat;lon;timestamp;temperature;humidity
67942;SHT31;54731;42.600;23.476;2023-07-31T00:01:19;20.02;72.21
67942;SHT31;54731;42.600;23.476;2023-07-31T00:03:46;20.06;72.89
67942;SHT31;54731;42.600;23.476;2023-07-31T00:06:11;20.01;73.29
67942;SHT31;54731;42.600;23.476;2023-07-31T00:08:36;20.01;74.20
67942;SHT31;54731;42.600;23.476;2023-07-31T00:11:02;19.96;74.16
67942;SHT31;54731;42.600;23.476;2023-07-31T00:13:27;19.89;74.17
67942;SHT31;54731;42.600;23.476;2023-07-31T00:15:52;19.85;74.51
67942;SHT31;54731;42.600;23.476;2023-07-31T00:18:18;19.86;74.43
67942;SHT31;54731;42.600;23.476;2023-07-31T00:20:43;19.82;74.59
67942;SHT31;54731;42.600;23.476;2023-07-31T00:23:08;19.81;75.82
67942;SHT31;54731;42.600;23.476;2023-07-31T00:25:35;19.78;75.31
67942;SHT31;54731;42.600;23.476;2023-07-31T00:28:00;19.78;74.60
67942;SHT31;54731;42.600;23.476;2023-07-31T00:30:25;19.79;74.58
67942;SHT31;54731;42.600;23.476;2023-07-31T00:32:50;19.78;74.86
67942;SHT31;54731;42.600;23.476;2023-07-31T00:35:16;19.75;76.09
67942;SHT31;54731;42.600;23.476;2023-07-31T00:37:41;19.72;76.49
67942;SHT31;54731;42.600;23.476;2023-07-31T00:40:07;19.77;76.98
67942;SHT31;54731;42.600;23.476;2023-07-31T00:42:33;19.79;76.75
67942;SHT31;54731;42.600;23.476;2023-07-31T00:44:58;19.71;76.60
67942;SHT31;54731;42.600;23.476;2023-07-31T00:47:23;19.64;77.01
67942;SHT31;54731;42.600;23.476;2023-07-31T00:49:49;19.59;77.38
67942;SHT31;54731;42.600;23.476;2023-07-31T00:52:14;19.54;77.48
67942;SHT31;54731;42.600;23.476;2023-07-31T00:54:39;19.47;77.64
67942;SHT31;54731;42.600;23.476;2023-07-31T00:57:05;19.38;77.63
67942;SHT31;54731;42.600;23.476;2023-07-31T00:59:30;19.44;77.75
67942;SHT31;54731;42.600;23.476;2023-07-31T01:01:55;19.47;78.02
67942;SHT31;54731;42.600;23.476;2023-07-31T01:04:21;19.46;78.03
67942;SHT31;54731;42.600;23.476;2023-07-31T01:11:56;19.37;77.32
67942;SHT31;54731;42.600;23.476;2023-07-31T01:14:22;19.37;76.90
67942;SHT31;54731;42.600;23.476;2023-07-31T01:16:47;19.32;76.94
67942;SHT31;54731;42.600;23.476;2023-07-31T01:19:14;19.32;77.13
67942;SHT31;54731;42.600;23.476;2023-07-31T01:27:14;19.37;77.63
67942;SHT31;54731;42.600;23.476;2023-07-31T01:29:46;19.34;77.66
67942;SHT31;54731;42.600;23.476;2023-07-31T01:32:13;19.34;77.61
67942;SHT31;54731;42.600;23.476;2023-07-31T01:34:40;19.35;77.62
67942;SHT31;54731;42.600;23.476;2023-07-31T01:37:06;19.31;77.53
67942;SHT31;54731;42.600;23.476;2023-07-31T01:39:31;19.32;77.60
67942;SHT31;54731;42.600;23.476;2023-07-31T01:41:57;19.26;77.71
67942;SHT31;54731;42.600;23.476;2023-07-31T01:44:22;19.17;77.86
67942;SHT31;54731;42.600;23.476;2023-07-31T01:46:47;19.14;78.29
67942;SHT31;54731;42.600;23.476;2023-07-31T01:49:13;19.17;78.19
67942;SHT31;54731;42.600;23.476;2023-07-31T01:51:38;19.10;78.66
67942;SHT31;54731;42.600;23.476;2023-07-31T01:54:03;19.07;78.95
67942;SHT31;54731;42.600;23.476;2023-07-31T01:56:29;19.03;79.33
67942;SHT31;54731;42.600;23.476;2023-07-31T01:58:54;19.00;79.58
67942;SHT31;54731;42.600;23.476;2023-07-31T02:01:19;19.00;79.57
67942;SHT31;54731;42.600;23.476;2023-07-31T02:03:45;18.99;79.94
67942;SHT31;54731;42.600;23.476;2023-07-31T02:06:10;18.99;80.29
67942;SHT31;54731;42.600;23.476;2023-07-31T02:08:36;18.96;80.29
67942;SHT31;54731;42.600;23.476;2023-07-31T02:11:01;18.93;80.52
67942;SHT31;54731;42.600;23.476;2023-07-31T02:13:26;18.93;80.80
67942;SHT31;54731;42.600;23.476;2023-07-31T02:15:51;18.92;80.66
67942;SHT31;54731;42.600;23.476;2023-07-31T02:18:17;18.87;81.01
67942;SHT31;54731;42.600;23.476;2023-07-31T02:20:42;18.82;81.37
67942;SHT31;54731;42.600;23.476;2023-07-31T02:23:07;18.90;81.28
67942;SHT31;54731;42.600;23.476;2023-07-31T02:25:33;18.92;81.12
67942;SHT31;54731;42.600;23.476;2023-07-31T02:27:58;18.86;81.58
67942;SHT31;54731;42.600;23.476;2023-07-31T02:30:23;18.89;81.52
67942;SHT31;54731;42.600;23.476;2023-07-31T02:32:49;18.86;81.58
67942;SHT31;54731;42.600;23.476;2023-07-31T02:35:14;18.90;81.28
67942;SHT31;54731;42.600;23.476;2023-07-31T02:37:39;18.92;81.42
67942;SHT31;54731;42.600;23.476;2023-07-31T02:40:05;18.90;81.34
67942;SHT31;54731;42.600;23.476;2023-07-31T02:42:30;18.92;81.02
67942;SHT31;54731;42.600;23.476;2023-07-31T02:44:56;18.92;81.25
67942;SHT31;54731;42.600;23.476;2023-07-31T02:47:22;18.90;81.44
67942;SHT31;54731;42.600;23.476;2023-07-31T02:49:47;18.94;81.43
67942;SHT31;54731;42.600;23.476;2023-07-31T02:52:12;18.97;81.25
67942;SHT31;54731;42.600;23.476;2023-07-31T02:54:38;19.00;81.03
67942;SHT31;54731;42.600;23.476;2023-07-31T02:57:03;18.97;81.28
67942;SHT31;54731;42.600;23.476;2023-07-31T02:59:28;19.03;80.96
67942;SHT31;54731;42.600;23.476;2023-07-31T03:01:54;18.97;81.30
67942;SHT31;54731;42.600;23.476;2023-07-31T03:04:19;19.02;81.19
67942;SHT31;54731;42.600;23.476;2023-07-31T03:06:44;19.00;81.24
67942;SHT31;54731;42.600;23.476;2023-07-31T03:09:10;19.06;81.11
67942;SHT31;54731;42.600;23.476;2023-07-31T03:11:35;18.99;81.43
67942;SHT31;54731;42.600;23.476;2023-07-31T03:14:00;19.00;81.44
67942;SHT31;54731;42.600;23.476;2023-07-31T03:16:25;19.04;81.40
67942;SHT31;54731;42.600;23.476;2023-07-31T03:18:51;19.06;81.37
67942;SHT31;54731;42.600;23.476;2023-07-31T03:21:16;19.07;81.61
67942;SHT31;54731;42.600;23.476;2023-07-31T03:23:41;19.10;81.45
67942;SHT31;54731;42.600;23.476;2023-07-31T03:26:07;19.07;81.43
67942;SHT31;54731;42.600;23.476;2023-07-31T03:28:33;19.11;81.23
67942;SHT31;54731;42.600;23.476;2023-07-31T03:30:58;19.10;81.05
67942;SHT31;54731;42.600;23.476;2023-07-31T03:33:23;19.07;81.07
67942;SHT31;54731;42.600;23.476;2023-07-31T03:35:49;19.11;81.22
67942;SHT31;54731;42.600;23.476;2023-07-31T03:38:14;19.07;81.31
67942;SHT31;54731;42.600;23.476;2023-07-31T03:40:39;19.10;81.28
67942;SHT31;54731;42.600;23.476;2023-07-31T03:43:05;19.11;81.32
67942;SHT31;54731;42.600;23.476;2023-07-31T03:45:30;19.14;81.22
67942;SHT31;54731;42.600;23.476;2023-07-31T03:47:56;19.08;81.43
67942;SHT31;54731;42.600;23.476;2023-07-31T03:50:21;19.04;81.61
67942;SHT31;54731;42.600;23.476;2023-07-31T03:52:46;19.07;81.65
67942;SHT31;54731;42.600;23.476;2023-07-31T03:55:12;19.08;81.34
67942;SHT31;54731;42.600;23.476;2023-07-31T03:57:37;19.11;81.26
67942;SHT31;54731;42.600;23.476;2023-07-31T04:00:03;19.14;81.25
67942;SHT31;54731;42.600;23.476;2023-07-31T04:02:28;19.16;81.04
67942;SHT31;54731;42.600;23.476;2023-07-31T04:04:53;19.20;80.86
67942;SHT31;54731;42.600;23.476;2023-07-31T04:07:19;19.18;80.92
67942;SHT31;54731;42.600;23.476;2023-07-31T04:09:44;19.21;80.77
67942;SHT31;54731;42.600;23.476;2023-07-31T04:12:09;19.20;80.28
67942;SHT31;54731;42.600;23.476;2023-07-31T04:14:34;19.21;80.34
67942;SHT31;54731;42.600;23.476;2023-07-31T04:17:00;19.17;80.49
67942;SHT31;54731;42.600;23.476;2023-07-31T04:19:25;19.18;80.32
67942;SHT31;54731;42.600;23.476;2023-07-31T04:21:50;19.17;80.12
67942;SHT31;54731;42.600;23.476;2023-07-31T04:24:16;19.17;80.73
67942;SHT31;54731;42.600;23.476;2023-07-31T04:26:41;19.16;80.27
67942;SHT31;54731;42.600;23.476;2023-07-31T04:29:06;19.21;80.52
67942;SHT31;54731;42.600;23.476;2023-07-31T04:31:32;19.27;80.02
67942;SHT31;54731;42.600;23.476;2023-07-31T04:33:57;19.28;79.93
67942;SHT31;54731;42.600;23.476;2023-07-31T04:36:22;19.27;80.03
67942;SHT31;54731;42.600;23.476;2023-07-31T04:38:47;19.28;80.26
67942;SHT31;54731;42.600;23.476;2023-07-31T04:41:13;19.38;80.20
67942;SHT31;54731;42.600;23.476;2023-07-31T04:43:38;19.32;79.87
67942;SHT31;54731;42.600;23.476;2023-07-31T04:46:03;19.39;79.84
67942;SHT31;54731;42.600;23.476;2023-07-31T04:48:29;19.43;79.58
67942;SHT31;54731;42.600;23.476;2023-07-31T04:50:54;19.47;79.44
67942;SHT31;54731;42.600;23.476;2023-07-31T04:53:19;19.54;79.31
67942;SHT31;54731;42.600;23.476;2023-07-31T04:55:44;19.57;79.06
67942;SHT31;54731;42.600;23.476;2023-07-31T04:58:10;19.58;78.95
67942;SHT31;54731;42.600;23.476;2023-07-31T05:00:35;19.68;79.06
67942;SHT31;54731;42.600;23.476;2023-07-31T05:03:00;19.65;78.14
67942;SHT31;54731;42.600;23.476;2023-07-31T05:05:26;19.71;77.54
67942;SHT31;54731;42.600;23.476;2023-07-31T05:07:51;19.78;77.31
67942;SHT31;54731;42.600;23.476;2023-07-31T05:10:16;19.75;77.42
67942;SHT31;54731;42.600;23.476;2023-07-31T05:12:42;19.72;77.19
67942;SHT31;54731;42.600;23.476;2023-07-31T05:15:07;19.74;76.66
67942;SHT31;54731;42.600;23.476;2023-07-31T05:17:33;19.74;77.01
67942;SHT31;54731;42.600;23.476;2023-07-31T05:19:58;19.77;76.79
67942;SHT31;54731;42.600;23.476;2023-07-31T05:22:23;19.75;77.12
67942;SHT31;54731;42.600;23.476;2023-07-31T05:24:49;19.71;76.71
67942;SHT31;54731;42.600;23.476;2023-07-31T05:27:14;19.74;76.90
67942;SHT31;54731;42.600;23.476;2023-07-31T05:29:40;19.77;76.72
67942;SHT31;54731;42.600;23.476;2023-07-31T05:32:06;19.81;76.88
67942;SHT31;54731;42.600;23.476;2023-07-31T05:34:31;19.81;76.82
67942;SHT31;54731;42.600;23.476;2023-07-31T05:36:56;19.83;77.31
67942;SHT31;54731;42.600;23.476;2023-07-31T05:39:22;19.96;77.01
67942;SHT31;54731;42.600;23.476;2023-07-31T05:41:47;20.06;76.84
67942;SHT31;54731;42.600;23.476;2023-07-31T05:44:12;20.18;76.56
67942;SHT31;54731;42.600;23.476;2023-07-31T05:46:38;20.23;75.32
67942;SHT31;54731;42.600;23.476;2023-07-31T05:49:03;20.26;75.36
67942;SHT31;54731;42.600;23.476;2023-07-31T05:51:28;20.28;75.38
67942;SHT31;54731;42.600;23.476;2023-07-31T05:53:53;20.32;75.50
67942;SHT31;54731;42.600;23.476;2023-07-31T05:56:19;20.43;75.03
67942;SHT31;54731;42.600;23.476;2023-07-31T05:58:44;20.57;74.20
67942;SHT31;54731;42.600;23.476;2023-07-31T06:01:09;20.62;73.51
67942;SHT31;54731;42.600;23.476;2023-07-31T06:03:35;20.69;74.10
67942;SHT31;54731;42.600;23.476;2023-07-31T06:06:00;20.70;73.78
67942;SHT31;54731;42.600;23.476;2023-07-31T06:08:25;20.69;73.15
67942;SHT31;54731;42.600;23.476;2023-07-31T06:10:50;20.72;72.80
67942;SHT31;54731;42.600;23.476;2023-07-31T06:13:16;20.73;72.52
67942;SHT31;54731;42.600;23.476;2023-07-31T06:15:41;20.79;71.73
67942;SHT31;54731;42.600;23.476;2023-07-31T06:18:06;20.84;71.22
67942;SHT31;54731;42.600;23.476;2023-07-31T06:20:32;20.90;71.33
67942;SHT31;54731;42.600;23.476;2023-07-31T06:22:57;20.97;70.37
67942;SHT31;54731;42.600;23.476;2023-07-31T06:25:22;21.03;70.81
67942;SHT31;54731;42.600;23.476;2023-07-31T06:27:48;21.10;69.34
67942;SHT31;54731;42.600;23.476;2023-07-31T06:30:13;21.10;69.65
67942;SHT31;54731;42.600;23.476;2023-07-31T06:32:38;21.11;69.23
67942;SHT31;54731;42.600;23.476;2023-07-31T06:35:04;21.12;68.36
67942;SHT31;54731;42.600;23.476;2023-07-31T06:37:29;21.17;67.47
67942;SHT31;54731;42.600;23.476;2023-07-31T06:39:54;21.32;67.86
67942;SHT31;54731;42.600;23.476;2023-07-31T06:42:20;21.44;67.54
67942;SHT31;54731;42.600;23.476;2023-07-31T06:44:45;21.51;66.96
67942;SHT31;54731;42.600;23.476;2023-07-31T06:47:10;21.59;66.44
67942;SHT31;54731;42.600;23.476;2023-07-31T06:49:36;21.74;65.98
67942;SHT31;54731;42.600;23.476;2023-07-31T06:52:01;21.85;66.59
67942;SHT31;54731;42.600;23.476;2023-07-31T06:54:26;21.89;65.20
67942;SHT31;54731;42.600;23.476;2023-07-31T06:56:52;21.90;64.45
67942;SHT31;54731;42.600;23.476;2023-07-31T06:59:17;21.92;64.45
67942;SHT31;54731;42.600;23.476;2023-07-31T07:01:42;21.95;64.91
67942;SHT31;54731;42.600;23.476;2023-07-31T07:04:07;21.78;64.24
67942;SHT31;54731;42.600;23.476;2023-07-31T07:06:33;21.54;64.84
67942;SHT31;54731;42.600;23.476;2023-07-31T07:08:58;21.47;65.67
67942;SHT31;54731;42.600;23.476;2023-07-31T07:11:23;21.51;65.61
67942;SHT31;54731;42.600;23.476;2023-07-31T07:13:49;21.42;65.37
67942;SHT31;54731;42.600;23.476;2023-07-31T07:16:14;21.45;65.64
67942;SHT31;54731;42.600;23.476;2023-07-31T07:18:39;21.44;65.77
67942;SHT31;54731;42.600;23.476;2023-07-31T07:21:04;21.48;65.75
67942;SHT31;54731;42.600;23.476;2023-07-31T07:23:30;21.47;65.97
67942;SHT31;54731;42.600;23.476;2023-07-31T07:25:55;21.42;65.52
67942;SHT31;54731;42.600;23.476;2023-07-31T07:28:20;21.47;65.37
67942;SHT31;54731;42.600;23.476;2023-07-31T07:30:51;21.57;66.02
67942;SHT31;54731;42.600;23.476;2023-07-31T07:33:16;21.59;64.45
67942;SHT31;54731;42.600;23.476;2023-07-31T07:35:42;21.68;63.66
67942;SHT31;54731;42.600;23.476;2023-07-31T07:38:07;21.66;64.05
67942;SHT31;54731;42.600;23.476;2023-07-31T07:40:32;21.78;63.28
67942;SHT31;54731;42.600;23.476;2023-07-31T07:42:57;21.78;63.49
67942;SHT31;54731;42.600;23.476;2023-07-31T07:45:23;21.86;63.59
67942;SHT31;54731;42.600;23.476;2023-07-31T07:47:48;21.92;63.28
67942;SHT31;54731;42.600;23.476;2023-07-31T07:50:13;21.99;62.71
67942;SHT31;54731;42.600;23.476;2023-07-31T07:52:39;22.10;62.11
67942;SHT31;54731;42.600;23.476;2023-07-31T07:55:04;22.26;61.96
67942;SHT31;54731;42.600;23.476;2023-07-31T07:57:30;22.40;62.01
67942;SHT31;54731;42.600;23.476;2023-07-31T07:59:55;22.47;61.44
67942;SHT31;54731;42.600;23.476;2023-07-31T08:02:22;22.53;60.72
67942;SHT31;54731;42.600;23.476;2023-07-31T08:04:47;22.65;61.49
67942;SHT31;54731;42.600;23.476;2023-07-31T08:07:12;22.64;61.48
67942;SHT31;54731;42.600;23.476;2023-07-31T08:09:38;22.56;61.22
67942;SHT31;54731;42.600;23.476;2023-07-31T08:12:04;22.57;60.83
67942;SHT31;54731;42.600;23.476;2023-07-31T08:14:30;22.60;60.62
67942;SHT31;54731;42.600;23.476;2023-07-31T08:16:55;22.67;61.02
67942;SHT31;54731;42.600;23.476;2023-07-31T08:19:21;22.64;60.86
67942;SHT31;54731;42.600;23.476;2023-07-31T08:21:46;22.78;60.49
67942;SHT31;54731;42.600;23.476;2023-07-31T08:24:11;23.01;59.48
67942;SHT31;54731;42.600;23.476;2023-07-31T08:26:36;23.08;60.09
67942;SHT31;54731;42.600;23.476;2023-07-31T08:29:02;23.10;58.78
67942;SHT31;54731;42.600;23.476;2023-07-31T08:31:27;23.10;58.72
67942;SHT31;54731;42.600;23.476;2023-07-31T08:33:53;23.19;58.40
67942;SHT31;54731;42.600;23.476;2023-07-31T08:36:18;23.34;58.24
67942;SHT31;54731;42.600;23.476;2023-07-31T08:38:45;23.34;57.66
67942;SHT31;54731;42.600;23.476;2023-07-31T08:41:10;23.38;57.01
67942;SHT31;54731;42.600;23.476;2023-07-31T08:43:36;23.38;56.68
67942;SHT31;54731;42.600;23.476;2023-07-31T08:46:02;23.49;56.94
67942;SHT31;54731;42.600;23.476;2023-07-31T08:48:28;23.46;55.39
67942;SHT31;54731;42.600;23.476;2023-07-31T08:50:54;23.49;54.97
67942;SHT31;54731;42.600;23.476;2023-07-31T08:53:19;23.58;55.80
67942;SHT31;54731;42.600;23.476;2023-07-31T08:55:46;23.54;56.76
67942;SHT31;54731;42.600;23.476;2023-07-31T08:58:13;23.51;56.40
67942;SHT31;54731;42.600;23.476;2023-07-31T09:00:39;23.54;56.07
67942;SHT31;54731;42.600;23.476;2023-07-31T09:03:19;23.66;56.31
67942;SHT31;54731;42.600;23.476;2023-07-31T09:05:46;23.80;54.21
67942;SHT31;54731;42.600;23.476;2023-07-31T09:08:13;23.89;54.28
67942;SHT31;54731;42.600;23.476;2023-07-31T09:10:45;24.02;55.43
67942;SHT31;54731;42.600;23.476;2023-07-31T09:13:14;23.92;53.88
67942;SHT31;54731;42.600;23.476;2023-07-31T09:15:41;23.99;53.50
67942;SHT31;54731;42.600;23.476;2023-07-31T09:18:07;24.06;53.29
67942;SHT31;54731;42.600;23.476;2023-07-31T09:20:33;24.07;52.56
67942;SHT31;54731;42.600;23.476;2023-07-31T09:23:06;24.09;53.27
67942;SHT31;54731;42.600;23.476;2023-07-31T09:25:31;24.16;52.59
67942;SHT31;54731;42.600;23.476;2023-07-31T09:28:07;24.09;53.56
67942;SHT31;54731;42.600;23.476;2023-07-31T09:30:50;24.21;53.13
67942;SHT31;54731;42.600;23.476;2023-07-31T09:33:17;24.17;52.69
67942;SHT31;54731;42.600;23.476;2023-07-31T09:35:42;24.20;53.44
67942;SHT31;54731;42.600;23.476;2023-07-31T09:38:15;24.21;52.75
67942;SHT31;54731;42.600;23.476;2023-07-31T09:40:42;24.40;52.48
67942;SHT31;54731;42.600;23.476;2023-07-31T09:43:11;24.46;52.40
67942;SHT31;54731;42.600;23.476;2023-07-31T09:45:38;24.33;53.48
67942;SHT31;54731;42.600;23.476;2023-07-31T09:48:17;24.36;52.16
67942;SHT31;54731;42.600;23.476;2023-07-31T09:50:47;24.33;52.20
67942;SHT31;54731;42.600;23.476;2023-07-31T09:53:13;24.40;52.66
67942;SHT31;54731;42.600;23.476;2023-07-31T09:55:40;24.39;51.98
67942;SHT31;54731;42.600;23.476;2023-07-31T09:58:10;24.50;51.28
67942;SHT31;54731;42.600;23.476;2023-07-31T10:00:36;24.53;50.36
67942;SHT31;54731;42.600;23.476;2023-07-31T10:03:04;24.54;50.94
67942;SHT31;54731;42.600;23.476;2023-07-31T10:05:35;24.60;52.09
67942;SHT31;54731;42.600;23.476;2023-07-31T10:08:01;24.72;51.48
67942;SHT31;54731;42.600;23.476;2023-07-31T10:10:26;24.88;51.27
67942;SHT31;54731;42.600;23.476;2023-07-31T10:12:53;24.90;51.76
67942;SHT31;54731;42.600;23.476;2023-07-31T10:15:19;24.80;51.24
67942;SHT31;54731;42.600;23.476;2023-07-31T10:17:47;24.85;52.43
67942;SHT31;54731;42.600;23.476;2023-07-31T10:20:14;24.92;51.75
67942;SHT31;54731;42.600;23.476;2023-07-31T10:22:39;24.98;52.09
67942;SHT31;54731;42.600;23.476;2023-07-31T10:25:08;25.02;50.77
67942;SHT31;54731;42.600;23.476;2023-07-31T10:27:35;25.04;50.36
67942;SHT31;54731;42.600;23.476;2023-07-31T10:30:02;24.92;50.77
67942;SHT31;54731;42.600;23.476;2023-07-31T10:32:29;25.10;51.86
67942;SHT31;54731;42.600;23.476;2023-07-31T10:34:55;25.31;50.16
67942;SHT31;54731;42.600;23.476;2023-07-31T10:39:55;25.55;49.90
67942;SHT31;54731;42.600;23.476;2023-07-31T10:42:27;25.58;49.35
67942;SHT31;54731;42.600;23.476;2023-07-31T10:44:57;25.63;48.38
67942;SHT31;54731;42.600;23.476;2023-07-31T10:47:22;25.52;49.07
67942;SHT31;54731;42.600;23.476;2023-07-31T10:49:48;25.61;48.75
67942;SHT31;54731;42.600;23.476;2023-07-31T10:52:13;25.63;50.14
67942;SHT31;54731;42.600;23.476;2023-07-31T10:54:39;25.61;48.84
67942;SHT31;54731;42.600;23.476;2023-07-31T10:57:21;25.69;48.66
67942;SHT31;54731;42.600;23.476;2023-07-31T10:59:48;25.69;48.34
67942;SHT31;54731;42.600;23.476;2023-07-31T11:02:26;25.77;48.79
67942;SHT31;54731;42.600;23.476;2023-07-31T11:05:10;25.83;47.62
67942;SHT31;54731;42.600;23.476;2023-07-31T11:07:46;25.90;47.24
67942;SHT31;54731;42.600;23.476;2023-07-31T11:10:16;25.94;46.95
67942;SHT31;54731;42.600;23.476;2023-07-31T11:12:41;26.04;47.65
67942;SHT31;54731;42.600;23.476;2023-07-31T11:15:07;26.04;46.95
67942;SHT31;54731;42.600;23.476;2023-07-31T11:17:32;26.03;46.19
67942;SHT31;54731;42.600;23.476;2023-07-31T11:19:58;25.96;47.48
67942;SHT31;54731;42.600;23.476;2023-07-31T11:22:23;26.00;47.16
67942;SHT31;54731;42.600;23.476;2023-07-31T11:24:48;25.94;47.88
67942;SHT31;54731;42.600;23.476;2023-07-31T11:27:14;26.04;47.00
67942;SHT31;54731;42.600;23.476;2023-07-31T11:29:39;26.12;47.34
67942;SHT31;54731;42.600;23.476;2023-07-31T11:32:04;26.12;47.23
67942;SHT31;54731;42.600;23.476;2023-07-31T11:34:30;26.21;46.18
67942;SHT31;54731;42.600;23.476;2023-07-31T11:36:55;26.20;46.27
67942;SHT31;54731;42.600;23.476;2023-07-31T11:39:20;26.28;46.41
67942;SHT31;54731;42.600;23.476;2023-07-31T11:41:46;26.27;46.63
67942;SHT31;54731;42.600;23.476;2023-07-31T11:44:11;26.26;46.41
67942;SHT31;54731;42.600;23.476;2023-07-31T11:46:37;26.24;46.35
67942;SHT31;54731;42.600;23.476;2023-07-31T11:49:03;26.20;45.80
67942;SHT31;54731;42.600;23.476;2023-07-31T11:51:29;26.28;45.15
67942;SHT31;54731;42.600;23.476;2023-07-31T11:53:57;26.23;44.58
67942;SHT31;54731;42.600;23.476;2023-07-31T11:56:24;26.20;44.62
67942;SHT31;54731;42.600;23.476;2023-07-31T11:58:53;26.14;44.75
67942;SHT31;54731;42.600;23.476;2023-07-31T12:01:21;26.26;44.14
67942;SHT31;54731;42.600;23.476;2023-07-31T12:03:47;26.34;44.89
67942;SHT31;54731;42.600;23.476;2023-07-31T12:06:13;26.41;45.10
67942;SHT31;54731;42.600;23.476;2023-07-31T12:08:38;26.50;45.42
67942;SHT31;54731;42.600;23.476;2023-07-31T12:11:05;26.60;44.25
67942;SHT31;54731;42.600;23.476;2023-07-31T12:13:32;26.60;43.97
67942;SHT31;54731;42.600;23.476;2023-07-31T12:16:02;26.67;44.83
67942;SHT31;54731;42.600;23.476;2023-07-31T12:18:34;26.78;45.14
67942;SHT31;54731;42.600;23.476;2023-07-31T12:21:01;27.16;45.88
67942;SHT31;54731;42.600;23.476;2023-07-31T12:23:28;27.47;44.02
67942;SHT31;54731;42.600;23.476;2023-07-31T12:28:28;27.98;42.94
67942;SHT31;54731;42.600;23.476;2023-07-31T12:30:57;28.38;42.04
67942;SHT31;54731;42.600;23.476;2023-07-31T12:33:22;28.45;41.24
67942;SHT31;54731;42.600;23.476;2023-07-31T12:35:48;28.51;40.05
67942;SHT31;54731;42.600;23.476;2023-07-31T12:38:13;28.69;40.64
67942;SHT31;54731;42.600;23.476;2023-07-31T12:40:40;28.83;40.61
67942;SHT31;54731;42.600;23.476;2023-07-31T12:43:09;29.13;39.22
67942;SHT31;54731;42.600;23.476;2023-07-31T12:45:34;29.08;39.30
67942;SHT31;54731;42.600;23.476;2023-07-31T12:48:00;29.06;39.16
67942;SHT31;54731;42.600;23.476;2023-07-31T12:50:26;28.71;40.25
67942;SHT31;54731;42.600;23.476;2023-07-31T12:52:53;28.72;40.28
67942;SHT31;54731;42.600;23.476;2023-07-31T12:55:19;28.62;41.10
67942;SHT31;54731;42.600;23.476;2023-07-31T12:57:44;28.78;40.24
67942;SHT31;54731;42.600;23.476;2023-07-31T13:00:10;28.69;40.68
67942;SHT31;54731;42.600;23.476;2023-07-31T13:02:35;28.72;41.43
67942;SHT31;54731;42.600;23.476;2023-07-31T13:05:01;28.52;40.51
67942;SHT31;54731;42.600;23.476;2023-07-31T13:07:26;28.51;41.43
67942;SHT31;54731;42.600;23.476;2023-07-31T13:09:51;28.58;41.13
67942;SHT31;54731;42.600;23.476;2023-07-31T13:12:17;28.75;41.08
67942;SHT31;54731;42.600;23.476;2023-07-31T13:14:42;29.08;40.55
67942;SHT31;54731;42.600;23.476;2023-07-31T13:17:07;28.98;39.43
67942;SHT31;54731;42.600;23.476;2023-07-31T13:19:33;29.16;39.38
67942;SHT31;54731;42.600;23.476;2023-07-31T13:21:58;29.33;39.34
67942;SHT31;54731;42.600;23.476;2023-07-31T13:24:23;29.27;38.42
67942;SHT31;54731;42.600;23.476;2023-07-31T13:26:49;29.45;39.39
67942;SHT31;54731;42.600;23.476;2023-07-31T13:29:14;29.56;39.18
67942;SHT31;54731;42.600;23.476;2023-07-31T13:31:39;29.62;38.40
67942;SHT31;54731;42.600;23.476;2023-07-31T13:34:04;29.62;38.13
67942;SHT31;54731;42.600;23.476;2023-07-31T13:36:30;29.59;38.04
67942;SHT31;54731;42.600;23.476;2023-07-31T13:38:55;29.64;37.86
67942;SHT31;54731;42.600;23.476;2023-07-31T13:41:20;29.54;37.82
67942;SHT31;54731;42.600;23.476;2023-07-31T13:43:45;29.22;38.78
67942;SHT31;54731;42.600;23.476;2023-07-31T13:46:11;29.16;39.25
67942;SHT31;54731;42.600;23.476;2023-07-31T13:48:36;28.89;39.33
67942;SHT31;54731;42.600;23.476;2023-07-31T13:51:02;28.76;39.02
67942;SHT31;54731;42.600;23.476;2023-07-31T13:53:27;28.54;39.72
67942;SHT31;54731;42.600;23.476;2023-07-31T13:55:52;28.10;39.63
67942;SHT31;54731;42.600;23.476;2023-07-31T13:58:18;27.97;41.12
67942;SHT31;54731;42.600;23.476;2023-07-31T14:00:43;28.01;40.76
67942;SHT31;54731;42.600;23.476;2023-07-31T14:03:08;27.86;40.80
67942;SHT31;54731;42.600;23.476;2023-07-31T14:05:34;27.96;41.81
67942;SHT31;54731;42.600;23.476;2023-07-31T14:07:59;27.82;41.13
67942;SHT31;54731;42.600;23.476;2023-07-31T14:10:25;27.97;41.35
67942;SHT31;54731;42.600;23.476;2023-07-31T14:12:50;27.87;42.56
67942;SHT31;54731;42.600;23.476;2023-07-31T14:15:15;28.06;41.47
67942;SHT31;54731;42.600;23.476;2023-07-31T14:17:40;28.20;42.74
67942;SHT31;54731;42.600;23.476;2023-07-31T14:20:06;28.38;42.00
67942;SHT31;54731;42.600;23.476;2023-07-31T14:22:32;28.58;41.21
67942;SHT31;54731;42.600;23.476;2023-07-31T14:24:57;28.71;40.74
67942;SHT31;54731;42.600;23.476;2023-07-31T14:27:22;28.75;40.01
67942;SHT31;54731;42.600;23.476;2023-07-31T14:29:48;28.82;39.30
67942;SHT31;54731;42.600;23.476;2023-07-31T14:32:13;28.89;39.87
67942;SHT31;54731;42.600;23.476;2023-07-31T14:34:38;28.76;39.95
67942;SHT31;54731;42.600;23.476;2023-07-31T14:37:04;28.76;39.52
67942;SHT31;54731;42.600;23.476;2023-07-31T14:39:29;28.72;39.50
67942;SHT31;54731;42.600;23.476;2023-07-31T14:41:54;28.47;39.96
67942;SHT31;54731;42.600;23.476;2023-07-31T14:44:20;28.58;39.84
67942;SHT31;54731;42.600;23.476;2023-07-31T14:46:45;28.61;40.35
67942;SHT31;54731;42.600;23.476;2023-07-31T14:49:10;28.87;39.54
67942;SHT31;54731;42.600;23.476;2023-07-31T14:51:36;28.99;39.42
67942;SHT31;54731;42.600;23.476;2023-07-31T14:54:01;28.94;39.77
67942;SHT31;54731;42.600;23.476;2023-07-31T14:56:26;29.10;39.47
67942;SHT31;54731;42.600;23.476;2023-07-31T14:58:51;29.27;39.68
67942;SHT31;54731;42.600;23.476;2023-07-31T15:01:17;29.36;39.86
67942;SHT31;54731;42.600;23.476;2023-07-31T15:03:42;29.43;38.94
67942;SHT31;54731;42.600;23.476;2023-07-31T15:06:07;29.40;38.90
67942;SHT31;54731;42.600;23.476;2023-07-31T15:08:33;29.60;39.36
67942;SHT31;54731;42.600;23.476;2023-07-31T15:10:58;29.43;39.79
67942;SHT31;54731;42.600;23.476;2023-07-31T15:13:24;29.47;40.21
67942;SHT31;54731;42.600;23.476;2023-07-31T15:15:49;29.50;40.08
67942;SHT31;54731;42.600;23.476;2023-07-31T15:18:15;29.45;40.44
67942;SHT31;54731;42.600;23.476;2023-07-31T15:20:40;29.59;40.31
67942;SHT31;54731;42.600;23.476;2023-07-31T15:23:05;29.63;40.32